createdAt,value
2022-09-15T00:00:00.877Z,98.5
2022-09-15T00:01:07.158Z,99
2022-09-15T00:02:13.432Z,99
2022-09-15T00:03:18.735Z,99
2022-09-15T00:04:24.064Z,99
2022-09-15T00:05:30.285Z,99
2022-09-15T00:06:36.555Z,99
2022-09-15T00:07:42.880Z,99
2022-09-15T00:08:49.105Z,98.5
2022-09-15T00:09:55.369Z,98.5
2022-09-15T00:11:01.649Z,98.5
2022-09-15T00:12:07.943Z,98.5
2022-09-15T00:13:13.213Z,98.5
2022-09-15T00:14:19.548Z,98
2022-09-15T00:15:24.773Z,98
2022-09-15T00:16:31.050Z,98
2022-09-15T00:17:37.317Z,98
2022-09-15T00:18:43.634Z,98
2022-09-15T00:19:49.866Z,98
2022-09-15T00:20:56.139Z,98
2022-09-15T00:22:02.399Z,97.5
2022-09-15T00:23:08.676Z,97.5
2022-09-15T00:24:14.949Z,97.5
2022-09-15T00:25:21.254Z,97.5
2022-09-15T00:26:27.524Z,97.5
2022-09-15T00:27:33.773Z,97.5
2022-09-15T00:28:40.104Z,97.5
2022-09-15T00:29:45.322Z,97.5
2022-09-15T00:30:51.610Z,97.5
2022-09-15T00:31:57.865Z,97.5
2022-09-15T00:33:04.147Z,97.5
2022-09-15T00:34:10.438Z,97.5
2022-09-15T00:35:16.714Z,97.5
2022-09-15T00:36:22.952Z,97
2022-09-15T00:37:29.228Z,97.5
2022-09-15T00:38:35.502Z,97.5
2022-09-15T00:39:41.771Z,97.5
2022-09-15T00:40:48.040Z,97.5
2022-09-15T00:41:54.322Z,97
2022-09-15T00:43:00.587Z,97
2022-09-15T00:44:05.875Z,96.5
2022-09-15T00:45:12.146Z,97
2022-09-15T00:46:17.452Z,97
2022-09-15T00:47:22.734Z,97
2022-09-15T00:48:29.001Z,96.5
2022-09-15T00:49:34.305Z,96.5
2022-09-15T00:50:39.589Z,97
2022-09-15T00:51:45.868Z,96.5
2022-09-15T00:52:52.136Z,96.5
2022-09-15T00:53:58.405Z,96.5
2022-09-15T00:55:04.696Z,97
2022-09-15T00:56:10.950Z,96.5
2022-09-15T00:57:17.224Z,96.5
2022-09-15T00:58:23.511Z,96
2022-09-15T00:59:29.768Z,96
2022-09-15T01:00:36.042Z,96
2022-09-15T01:01:42.313Z,95.5
2022-09-15T01:02:48.580Z,96
2022-09-15T01:03:54.850Z,95
2022-09-15T01:05:01.125Z,95
2022-09-15T01:06:06.415Z,95
2022-09-15T01:07:12.683Z,95.5
2022-09-15T01:08:18.958Z,95.5
2022-09-15T01:09:25.229Z,94.5
2022-09-15T01:10:31.505Z,94.5
2022-09-15T01:11:37.768Z,95
2022-09-15T01:12:43.074Z,94
2022-09-15T01:13:48.361Z,94
2022-09-15T01:14:54.643Z,94.5
2022-09-15T01:16:00.898Z,94.5
2022-09-15T01:17:06.209Z,94.5
2022-09-15T01:18:11.490Z,94.5
2022-09-15T01:19:17.762Z,94
2022-09-15T01:20:24.041Z,94
2022-09-15T01:21:30.303Z,94
2022-09-15T01:22:36.584Z,94
2022-09-15T01:23:42.859Z,94.5
2022-09-15T01:24:49.123Z,94
2022-09-15T01:25:55.396Z,93.5
2022-09-15T01:27:01.667Z,94
2022-09-15T01:28:07.936Z,94
2022-09-15T01:29:14.216Z,94
2022-09-15T01:30:20.479Z,94.5
2022-09-15T01:31:26.755Z,93
2022-09-15T01:32:32.043Z,93
2022-09-15T01:33:38.315Z,93
2022-09-15T01:34:44.586Z,92
2022-09-15T01:35:50.859Z,92.5
2022-09-15T01:36:57.138Z,92
2022-09-15T01:38:03.402Z,92
2022-09-15T01:39:09.675Z,92
2022-09-15T01:40:15.949Z,91.5
2022-09-15T01:41:22.225Z,91.5
2022-09-15T01:42:27.514Z,92.5
2022-09-15T01:43:32.804Z,91.5
2022-09-15T01:44:39.081Z,92.5
2022-09-15T01:45:45.349Z,92.5
2022-09-15T01:46:51.621Z,91.5
2022-09-15T01:47:57.932Z,91.5
2022-09-15T01:49:04.170Z,92
2022-09-15T01:50:10.442Z,91.5
2022-09-15T01:51:16.717Z,91.5
2022-09-15T01:52:22.008Z,91.5
2022-09-15T01:53:28.277Z,91.5
2022-09-15T01:54:34.546Z,91
2022-09-15T01:55:40.823Z,92
2022-09-15T01:56:47.094Z,91
2022-09-15T01:57:53.366Z,91
2022-09-15T01:58:59.642Z,91
2022-09-15T02:00:05.919Z,91.5
2022-09-15T02:01:12.186Z,92.5
2022-09-15T02:02:18.470Z,92
2022-09-15T02:03:24.729Z,91.5
2022-09-15T02:04:31.082Z,92
2022-09-15T02:05:36.295Z,91.5
2022-09-15T02:06:41.586Z,91.5
2022-09-15T02:07:47.858Z,91.5
2022-09-15T02:08:53.160Z,92
2022-09-15T02:09:58.440Z,93
2022-09-15T02:11:04.710Z,92.5
2022-09-15T02:12:11.030Z,92.5
2022-09-15T02:13:17.257Z,92
2022-09-15T02:14:23.533Z,92.5
2022-09-15T02:15:29.807Z,92.5
2022-09-15T02:16:36.083Z,92.5
2022-09-15T02:17:42.348Z,93
2022-09-15T02:18:48.619Z,93
2022-09-15T02:19:54.899Z,93
2022-09-15T02:21:01.180Z,93
2022-09-15T02:22:07.442Z,92.5
2022-09-15T02:23:13.706Z,93.5
2022-09-15T02:24:19.002Z,92.5
2022-09-15T02:25:25.318Z,93
2022-09-15T02:26:31.543Z,93
2022-09-15T02:27:37.825Z,93.5
2022-09-15T02:28:44.085Z,93.5
2022-09-15T02:29:50.362Z,92.5
2022-09-15T02:30:56.645Z,93
2022-09-15T02:32:01.931Z,93
2022-09-15T02:33:07.222Z,93.5
2022-09-15T02:34:12.519Z,93
2022-09-15T02:35:17.816Z,93
2022-09-15T02:36:24.098Z,93
2022-09-15T02:37:30.384Z,92.5
2022-09-15T02:38:36.649Z,93
2022-09-15T02:39:42.901Z,93
2022-09-15T02:40:49.164Z,93
2022-09-15T02:41:55.469Z,93
2022-09-15T02:43:01.707Z,93.5
2022-09-15T02:44:07.981Z,93
2022-09-15T02:45:14.253Z,93
2022-09-15T02:46:20.526Z,93.5
2022-09-15T02:47:26.794Z,93.5
2022-09-15T02:48:33.073Z,93.5
2022-09-15T02:49:38.359Z,93.5
2022-09-15T02:50:44.633Z,93.5
2022-09-15T02:51:50.902Z,93.5
2022-09-15T02:52:57.175Z,93.5
2022-09-15T02:54:03.450Z,93.5
2022-09-15T02:55:09.721Z,93.5
2022-09-15T02:56:16.038Z,93.5
2022-09-15T02:57:21.292Z,93.5
2022-09-15T02:58:26.620Z,93.5
2022-09-15T02:59:31.899Z,93.5
2022-09-15T03:00:37.169Z,94
2022-09-15T03:01:43.447Z,94
2022-09-15T03:02:49.721Z,94
2022-09-15T03:03:55.977Z,94
2022-09-15T03:05:02.259Z,93.5
2022-09-15T03:06:08.533Z,94
2022-09-15T03:07:14.805Z,94
2022-09-15T03:08:21.071Z,94
2022-09-15T03:09:27.353Z,94
2022-09-15T03:10:33.621Z,94
2022-09-15T03:11:39.895Z,94
2022-09-15T03:12:46.152Z,94
2022-09-15T03:13:52.433Z,94.5
2022-09-15T03:14:57.720Z,95
2022-09-15T03:16:03.989Z,94.5
2022-09-15T03:17:10.261Z,94
2022-09-15T03:18:16.540Z,94.5
2022-09-15T03:19:22.884Z,94
2022-09-15T03:20:29.087Z,94
2022-09-15T03:21:35.350Z,94
2022-09-15T03:22:40.657Z,94
2022-09-15T03:23:45.942Z,94
2022-09-15T03:24:51.237Z,94
2022-09-15T03:25:56.530Z,94.5
2022-09-15T03:27:02.805Z,94
2022-09-15T03:28:09.094Z,94
2022-09-15T03:29:15.342Z,94
2022-09-15T03:30:21.610Z,94.5
2022-09-15T03:31:27.910Z,94
2022-09-15T03:32:34.164Z,94
2022-09-15T03:33:40.431Z,94.5
2022-09-15T03:34:46.709Z,94
2022-09-15T03:35:52.974Z,94
2022-09-15T03:36:59.277Z,94
2022-09-15T03:38:05.543Z,93.5
2022-09-15T03:39:11.795Z,93.5
2022-09-15T03:40:17.098Z,94
2022-09-15T03:41:23.352Z,94
2022-09-15T03:42:29.620Z,93.5
2022-09-15T03:43:35.898Z,93.5
2022-09-15T03:44:42.174Z,93.5
2022-09-15T03:45:48.433Z,93.5
2022-09-15T03:46:54.715Z,94
2022-09-15T03:48:00.037Z,94
2022-09-15T03:49:05.292Z,94
2022-09-15T03:50:11.578Z,94.5
2022-09-15T03:51:16.893Z,93.5
2022-09-15T03:52:22.157Z,93.5
2022-09-15T03:53:28.486Z,93.5
2022-09-15T03:54:34.700Z,93.5
2022-09-15T03:55:41.024Z,93.5
2022-09-15T03:56:47.267Z,93
2022-09-15T03:57:53.539Z,93
2022-09-15T03:58:59.786Z,93.5
2022-09-15T04:00:06.064Z,93.5
2022-09-15T04:01:12.336Z,93
2022-09-15T04:02:18.644Z,93
2022-09-15T04:03:24.883Z,93.5
2022-09-15T04:04:31.153Z,93.5
2022-09-15T04:05:37.424Z,93.5
2022-09-15T04:06:42.761Z,94
2022-09-15T04:07:48.986Z,93.5
2022-09-15T04:08:55.282Z,93.5
2022-09-15T04:10:01.575Z,94
2022-09-15T04:11:07.806Z,94.5
2022-09-15T04:12:14.099Z,94
2022-09-15T04:13:20.350Z,94
2022-09-15T04:14:25.649Z,94
2022-09-15T04:15:30.962Z,94.5
2022-09-15T04:16:37.204Z,94.5
2022-09-15T04:17:43.474Z,94
2022-09-15T04:18:48.809Z,94
2022-09-15T04:19:54.067Z,94.5
2022-09-15T04:21:00.341Z,94
2022-09-15T04:22:06.625Z,94
2022-09-15T04:23:12.881Z,93.5
2022-09-15T04:24:19.153Z,93.5
2022-09-15T04:25:25.430Z,94
2022-09-15T04:26:31.715Z,93.5
2022-09-15T04:27:37.970Z,94
2022-09-15T04:28:44.277Z,93.5
2022-09-15T04:29:50.562Z,93.5
2022-09-15T04:30:56.788Z,94
2022-09-15T04:32:03.075Z,94
2022-09-15T04:33:09.328Z,94
2022-09-15T04:34:14.621Z,93.5
2022-09-15T04:35:20.903Z,93.5
2022-09-15T04:36:27.162Z,93.5
2022-09-15T04:37:33.468Z,93.5
2022-09-15T04:38:39.711Z,93.5
2022-09-15T04:39:46.001Z,93.5
2022-09-15T04:40:52.250Z,93.5
2022-09-15T04:41:57.589Z,93.5
2022-09-15T04:43:02.842Z,93.5
2022-09-15T04:44:08.138Z,93.5
2022-09-15T04:45:13.425Z,93.5
2022-09-15T04:46:19.704Z,93.5
2022-09-15T04:47:25.971Z,93.5
2022-09-15T04:48:32.259Z,93.5
2022-09-15T04:49:38.514Z,93.5
2022-09-15T04:50:44.785Z,93.5
2022-09-15T04:51:51.117Z,93.5
2022-09-15T04:52:57.327Z,93.5
2022-09-15T04:54:03.602Z,93.5
2022-09-15T04:55:09.874Z,93.5
2022-09-15T04:56:16.149Z,94
2022-09-15T04:57:22.420Z,94
2022-09-15T04:58:28.697Z,94.5
2022-09-15T04:59:33.996Z,94.5
2022-09-15T05:00:40.251Z,94
2022-09-15T05:01:46.537Z,94.5
2022-09-15T05:02:52.803Z,94
2022-09-15T05:03:59.082Z,94
2022-09-15T05:05:05.338Z,94
2022-09-15T05:06:11.619Z,94
2022-09-15T05:07:16.916Z,94
2022-09-15T05:08:22.202Z,94
2022-09-15T05:09:27.574Z,94
2022-09-15T05:10:32.795Z,94.5
2022-09-15T05:11:39.060Z,94
2022-09-15T05:12:45.339Z,94
2022-09-15T05:13:51.601Z,94.5
2022-09-15T05:14:57.971Z,94
2022-09-15T05:16:04.166Z,94
2022-09-15T05:17:10.470Z,94.5
2022-09-15T05:18:16.705Z,94
2022-09-15T05:19:23.000Z,94.5
2022-09-15T05:20:29.235Z,94
2022-09-15T05:21:35.508Z,94
2022-09-15T05:22:41.824Z,94.5
2022-09-15T05:23:48.056Z,94.5
2022-09-15T05:24:53.343Z,94.5
2022-09-15T05:25:59.609Z,94
2022-09-15T05:27:05.891Z,94
2022-09-15T05:28:12.159Z,94.5
2022-09-15T05:29:18.427Z,94
2022-09-15T05:30:24.697Z,93.5
2022-09-15T05:31:30.974Z,94
2022-09-15T05:32:36.305Z,94.5
2022-09-15T05:33:41.679Z,94
2022-09-15T05:34:46.886Z,93.5
2022-09-15T05:35:52.148Z,94
2022-09-15T05:36:58.492Z,94
2022-09-15T05:38:04.771Z,94
2022-09-15T05:39:11.097Z,94.5
2022-09-15T05:40:17.284Z,94
2022-09-15T05:41:23.596Z,94.5
2022-09-15T05:42:29.858Z,94.5
2022-09-15T05:43:36.109Z,94
2022-09-15T05:44:42.371Z,94
2022-09-15T05:45:48.612Z,94.5
2022-09-15T05:46:54.874Z,94.5
2022-09-15T05:48:01.238Z,94.5
2022-09-15T05:49:07.427Z,94.5
2022-09-15T05:50:12.725Z,94.5
2022-09-15T05:51:18.983Z,95
2022-09-15T05:52:25.269Z,94.5
2022-09-15T05:53:31.528Z,95
2022-09-15T05:54:37.810Z,94.5
2022-09-15T05:55:44.066Z,95
2022-09-15T05:56:50.347Z,95
2022-09-15T05:57:55.640Z,95
2022-09-15T05:59:00.998Z,94.5
2022-09-15T06:00:06.232Z,95
2022-09-15T06:01:11.580Z,94.5
2022-09-15T06:02:17.801Z,94.5
2022-09-15T06:03:24.085Z,94.5
2022-09-15T06:04:30.328Z,94
2022-09-15T06:05:36.617Z,94.5
2022-09-15T06:06:42.871Z,95
2022-09-15T06:07:49.145Z,95
2022-09-15T06:08:55.483Z,95
2022-09-15T06:10:01.696Z,95.5
2022-09-15T06:11:07.973Z,96.5
2022-09-15T06:12:14.383Z,96
2022-09-15T06:13:20.498Z,96
2022-09-15T06:14:26.777Z,96.5
2022-09-15T06:15:32.096Z,96.5
2022-09-15T06:16:38.340Z,97
2022-09-15T06:17:44.616Z,97.5
2022-09-15T06:18:50.880Z,97
2022-09-15T06:19:57.149Z,97.5
2022-09-15T06:21:03.416Z,97.5
2022-09-15T06:22:09.693Z,98
2022-09-15T06:23:14.991Z,98
2022-09-15T06:24:20.298Z,96.5
2022-09-15T06:25:26.576Z,96.5
2022-09-15T06:26:31.863Z,96
2022-09-15T06:27:37.136Z,96
2022-09-15T06:28:43.444Z,96
2022-09-15T06:29:49.684Z,95.5
2022-09-15T06:30:55.988Z,95.5
2022-09-15T06:32:02.232Z,96
2022-09-15T06:33:08.498Z,96
2022-09-15T06:34:14.799Z,95.5
2022-09-15T06:35:21.044Z,95.5
2022-09-15T06:36:27.342Z,95.5
2022-09-15T06:37:33.589Z,95
2022-09-15T06:38:39.860Z,96
2022-09-15T06:39:46.159Z,96
2022-09-15T06:40:52.408Z,95.5
2022-09-15T06:41:57.696Z,95
2022-09-15T06:43:03.969Z,95.5
2022-09-15T06:44:10.239Z,95.5
2022-09-15T06:45:16.505Z,95
2022-09-15T06:46:22.791Z,95.5
2022-09-15T06:47:29.051Z,95
2022-09-15T06:48:35.342Z,95.5
2022-09-15T06:49:41.610Z,95.5
2022-09-15T06:50:47.906Z,95.5
2022-09-15T06:51:54.163Z,95
2022-09-15T06:53:00.413Z,96
2022-09-15T06:54:06.714Z,95
2022-09-15T06:55:12.960Z,95
2022-09-15T06:56:18.247Z,96
2022-09-15T06:57:23.552Z,95.5
2022-09-15T06:58:28.860Z,96
2022-09-15T06:59:35.252Z,96.5
2022-09-15T07:00:41.437Z,96
2022-09-15T07:01:47.648Z,96.5
2022-09-15T07:02:53.959Z,96
2022-09-15T07:04:00.293Z,95.5
2022-09-15T07:05:06.460Z,95.5
2022-09-15T07:06:12.739Z,96
2022-09-15T07:07:19.014Z,96.5
2022-09-15T07:08:25.306Z,96
2022-09-15T07:09:31.551Z,96
2022-09-15T07:10:37.840Z,95.5
2022-09-15T07:11:44.121Z,96
2022-09-15T07:12:49.384Z,96
2022-09-15T07:13:55.662Z,96
2022-09-15T07:15:01.926Z,96
2022-09-15T07:16:08.195Z,96
2022-09-15T07:17:14.469Z,95
2022-09-15T07:18:20.803Z,95.5
2022-09-15T07:19:27.016Z,95.5
2022-09-15T07:20:33.283Z,95.5
2022-09-15T07:21:38.584Z,95.5
2022-09-15T07:22:43.874Z,96
2022-09-15T07:23:50.168Z,95
2022-09-15T07:24:56.412Z,95
2022-09-15T07:26:01.738Z,95
2022-09-15T07:27:07.006Z,95.5
2022-09-15T07:28:13.277Z,95.5
2022-09-15T07:29:19.584Z,94.5
2022-09-15T07:30:25.818Z,95
2022-09-15T07:31:32.085Z,95.5
2022-09-15T07:32:38.359Z,94
2022-09-15T07:33:44.639Z,93.5
2022-09-15T07:34:50.908Z,93
2022-09-15T07:35:57.167Z,92.5
2022-09-15T07:37:03.467Z,92.5
2022-09-15T07:38:09.723Z,92
2022-09-15T07:39:16.045Z,92
2022-09-15T07:40:22.264Z,92
2022-09-15T07:41:27.550Z,93
2022-09-15T07:42:33.839Z,93
2022-09-15T07:43:40.091Z,92
2022-09-15T07:44:46.365Z,93
2022-09-15T07:45:52.653Z,94
2022-09-15T07:46:58.916Z,91.5
2022-09-15T07:48:05.182Z,91.5
2022-09-15T07:49:10.486Z,90.5
2022-09-15T07:50:15.783Z,90.5
2022-09-15T07:51:22.071Z,91
2022-09-15T07:52:28.327Z,91
2022-09-15T07:53:34.594Z,90
2022-09-15T07:54:40.863Z,90
2022-09-15T07:55:47.134Z,89.5
2022-09-15T07:56:53.424Z,89
2022-09-15T07:57:59.678Z,90.5
2022-09-15T07:59:05.951Z,89
2022-09-15T08:00:12.230Z,90.5
2022-09-15T08:01:18.494Z,89.5
2022-09-15T08:02:24.776Z,90.5
2022-09-15T08:03:31.036Z,88
2022-09-15T08:04:36.359Z,89
2022-09-15T08:05:42.594Z,89
2022-09-15T08:06:48.869Z,91
2022-09-15T08:07:55.142Z,88
2022-09-15T08:09:01.407Z,90
2022-09-15T08:10:07.682Z,89
2022-09-15T08:11:13.960Z,88.5
2022-09-15T08:12:20.227Z,88
2022-09-15T08:13:25.655Z,86
2022-09-15T08:14:30.857Z,88.5
2022-09-15T08:15:36.156Z,89
2022-09-15T08:16:41.411Z,88.5
2022-09-15T08:17:47.720Z,88
2022-09-15T08:18:52.975Z,87.5
2022-09-15T08:19:58.303Z,88.5
2022-09-15T08:21:04.541Z,84.5
2022-09-15T08:22:10.811Z,84
2022-09-15T08:23:17.090Z,83.5
2022-09-15T08:24:23.352Z,82.5
2022-09-15T08:25:29.636Z,82.5
2022-09-15T08:26:35.915Z,80.5
2022-09-15T08:27:42.179Z,83.5
2022-09-15T08:28:48.439Z,81.5
2022-09-15T08:29:54.723Z,82
2022-09-15T08:31:00.976Z,81.5
2022-09-15T08:32:07.249Z,82
2022-09-15T08:33:13.536Z,81
2022-09-15T08:34:18.816Z,83.5
2022-09-15T08:35:25.146Z,81.5
2022-09-15T08:36:31.357Z,81
2022-09-15T08:37:37.635Z,82.5
2022-09-15T08:38:43.907Z,82.5
2022-09-15T08:39:50.172Z,81
2022-09-15T08:40:56.450Z,81
2022-09-15T08:42:01.840Z,81
2022-09-15T08:43:07.045Z,81
2022-09-15T08:44:13.417Z,81
2022-09-15T08:45:19.608Z,80.5
2022-09-15T08:46:25.946Z,81
2022-09-15T08:47:32.171Z,80.5
2022-09-15T08:48:38.391Z,82
2022-09-15T08:49:44.680Z,81
2022-09-15T08:50:50.938Z,81.5
2022-09-15T08:51:57.245Z,81
2022-09-15T08:53:03.492Z,80.5
2022-09-15T08:54:09.787Z,80
2022-09-15T08:55:15.068Z,80.5
2022-09-15T08:56:20.421Z,81
2022-09-15T08:57:26.620Z,79.5
2022-09-15T08:58:32.928Z,82
2022-09-15T08:59:39.169Z,82.5
2022-09-15T09:00:45.432Z,79.5
2022-09-15T09:01:51.710Z,80
2022-09-15T09:02:58.023Z,81
2022-09-15T09:04:04.248Z,81.5
2022-09-15T09:05:10.518Z,83.5
2022-09-15T09:06:16.819Z,83
2022-09-15T09:07:23.074Z,79.5
2022-09-15T09:08:29.334Z,80
2022-09-15T09:09:35.608Z,81
2022-09-15T09:10:40.937Z,78.5
2022-09-15T09:11:47.167Z,78.5
2022-09-15T09:12:53.466Z,79
2022-09-15T09:13:59.718Z,81
2022-09-15T09:15:05.014Z,78.5
2022-09-15T09:16:11.279Z,80.5
2022-09-15T09:17:17.632Z,79
2022-09-15T09:18:23.823Z,80.5
2022-09-15T09:19:30.106Z,79
2022-09-15T09:20:35.431Z,81.5
2022-09-15T09:21:40.737Z,79.5
2022-09-15T09:22:46.967Z,80.5
2022-09-15T09:23:53.250Z,81.5
2022-09-15T09:24:58.567Z,79
2022-09-15T09:26:03.895Z,81
2022-09-15T09:27:10.131Z,81
2022-09-15T09:28:16.423Z,80
2022-09-15T09:29:22.694Z,80.5
2022-09-15T09:30:28.935Z,79
2022-09-15T09:31:35.218Z,78.5
2022-09-15T09:32:41.499Z,81
2022-09-15T09:33:47.759Z,80
2022-09-15T09:34:53.985Z,79
2022-09-15T09:36:00.282Z,80.5
2022-09-15T09:37:06.538Z,79
2022-09-15T09:38:12.805Z,79
2022-09-15T09:39:19.114Z,79.5
2022-09-15T09:40:24.373Z,82
2022-09-15T09:41:30.640Z,82
2022-09-15T09:42:36.951Z,79.5
2022-09-15T09:43:43.307Z,79.5
2022-09-15T09:44:49.559Z,79.5
2022-09-15T09:45:55.826Z,80.5
2022-09-15T09:47:02.096Z,80
2022-09-15T09:48:07.422Z,80
2022-09-15T09:49:12.641Z,79.5
2022-09-15T09:50:18.980Z,78.5
2022-09-15T09:51:24.275Z,81
2022-09-15T09:52:29.509Z,79.5
2022-09-15T09:53:35.798Z,79
2022-09-15T09:54:42.057Z,80
2022-09-15T09:55:48.268Z,81
2022-09-15T09:56:54.635Z,76.5
2022-09-15T09:58:00.897Z,75
2022-09-15T09:59:07.125Z,75
2022-09-15T10:00:13.419Z,76
2022-09-15T10:01:19.737Z,78.5
2022-09-15T10:02:25.998Z,78.5
2022-09-15T10:03:32.234Z,76
2022-09-15T10:04:38.443Z,79
2022-09-15T10:05:44.733Z,79.5
2022-09-15T10:06:49.999Z,79
2022-09-15T10:07:56.280Z,80
2022-09-15T10:09:02.546Z,79.5
2022-09-15T10:10:08.888Z,80.5
2022-09-15T10:11:15.096Z,78.5
2022-09-15T10:12:21.549Z,79.5
2022-09-15T10:13:27.723Z,79
2022-09-15T10:14:32.989Z,80
2022-09-15T10:15:38.237Z,78.5
2022-09-15T10:16:44.597Z,79.5
2022-09-15T10:17:49.805Z,79
2022-09-15T10:18:55.098Z,80.5
2022-09-15T10:20:01.394Z,79.5
2022-09-15T10:21:07.699Z,80.5
2022-09-15T10:22:13.898Z,80
2022-09-15T10:23:20.165Z,79.5
2022-09-15T10:24:26.441Z,79
2022-09-15T10:25:32.794Z,81.5
2022-09-15T10:26:38.980Z,80
2022-09-15T10:27:45.269Z,79
2022-09-15T10:28:51.526Z,79
2022-09-15T10:29:57.912Z,79.5
2022-09-15T10:31:04.080Z,80
2022-09-15T10:32:10.346Z,79
2022-09-15T10:33:15.641Z,79.5
2022-09-15T10:34:21.901Z,79.5
2022-09-15T10:35:28.303Z,81
2022-09-15T10:36:34.527Z,79.5
2022-09-15T10:37:40.795Z,80.5
2022-09-15T10:38:47.000Z,81
2022-09-15T10:39:53.311Z,82.5
2022-09-15T10:40:59.603Z,81.5
2022-09-15T10:42:05.816Z,81
2022-09-15T10:43:12.081Z,80.5
2022-09-15T10:44:18.353Z,80.5
2022-09-15T10:45:24.727Z,82
2022-09-15T10:46:30.906Z,80.5
2022-09-15T10:47:36.185Z,80.5
2022-09-15T10:48:42.481Z,80.5
2022-09-15T10:49:48.727Z,81
2022-09-15T10:50:55.111Z,79.5
2022-09-15T10:52:01.383Z,79.5
2022-09-15T10:53:07.548Z,79.5
2022-09-15T10:54:13.860Z,80.5
2022-09-15T10:55:20.115Z,81
2022-09-15T10:56:26.539Z,81
2022-09-15T10:57:32.653Z,81
2022-09-15T10:58:38.938Z,83
2022-09-15T10:59:45.216Z,82.5
2022-09-15T11:00:51.501Z,82.5
2022-09-15T11:01:56.758Z,81
2022-09-15T11:03:03.017Z,81
2022-09-15T11:04:09.329Z,81
2022-09-15T11:05:15.587Z,81
2022-09-15T11:06:21.830Z,82
2022-09-15T11:07:28.212Z,80.5
2022-09-15T11:08:34.399Z,81.5
2022-09-15T11:09:40.772Z,82.5
2022-09-15T11:10:46.942Z,81
2022-09-15T11:11:53.307Z,82.5
2022-09-15T11:12:59.506Z,81.5
2022-09-15T11:14:04.850Z,82
2022-09-15T11:15:10.122Z,83
2022-09-15T11:16:15.429Z,84
2022-09-15T11:17:20.671Z,83.5
2022-09-15T11:18:26.931Z,81
2022-09-15T11:19:33.285Z,81
2022-09-15T11:20:39.461Z,82.5
2022-09-15T11:21:45.808Z,80.5
2022-09-15T11:22:52.005Z,81.5
2022-09-15T11:23:58.355Z,81
2022-09-15T11:25:04.570Z,80.5
2022-09-15T11:26:10.811Z,80.5
2022-09-15T11:27:17.085Z,80.5
2022-09-15T11:28:23.403Z,82.5
2022-09-15T11:29:29.712Z,80.5
2022-09-15T11:30:36.011Z,80.5
2022-09-15T11:31:41.291Z,80.5
2022-09-15T11:32:47.564Z,80
2022-09-15T11:33:53.789Z,80
2022-09-15T11:35:00.062Z,81.5
2022-09-15T11:36:06.276Z,81.5
2022-09-15T11:37:12.567Z,81
2022-09-15T11:38:18.871Z,80
2022-09-15T11:39:24.137Z,79.5
2022-09-15T11:40:29.430Z,79.5
2022-09-15T11:41:35.781Z,77
2022-09-15T11:42:42.006Z,79
2022-09-15T11:43:48.327Z,77.5
2022-09-15T11:44:54.517Z,78
2022-09-15T11:46:00.815Z,77.5
2022-09-15T11:47:06.069Z,75.5
2022-09-15T11:48:11.413Z,76.5
2022-09-15T11:49:17.644Z,75.5
2022-09-15T11:50:23.923Z,74.5
2022-09-15T11:51:30.230Z,73.5
2022-09-15T11:52:36.450Z,73
2022-09-15T11:53:42.731Z,72
2022-09-15T11:54:48.988Z,72.5
2022-09-15T11:55:55.255Z,72.5
2022-09-15T11:57:01.587Z,73
2022-09-15T11:58:07.843Z,72
2022-09-15T11:59:14.116Z,72.5
2022-09-15T12:00:20.353Z,72.5
2022-09-15T12:01:26.649Z,71.5
2022-09-15T12:02:31.907Z,73.5
2022-09-15T12:03:38.243Z,72.5
2022-09-15T12:04:44.460Z,75
2022-09-15T12:05:50.726Z,73.5
2022-09-15T12:06:57.059Z,73
2022-09-15T12:08:03.267Z,74.5
2022-09-15T12:09:09.568Z,75.5
2022-09-15T12:10:15.050Z,76.5
2022-09-15T12:11:20.271Z,77.5
2022-09-15T12:12:26.545Z,79.5
2022-09-15T12:13:31.861Z,80.5
2022-09-15T12:14:37.124Z,83
2022-09-15T12:15:43.326Z,84.5
2022-09-15T12:16:49.573Z,85.5
2022-09-15T12:17:55.856Z,84.5
2022-09-15T12:19:02.146Z,87.5
2022-09-15T12:20:08.373Z,90.5
2022-09-15T12:21:14.633Z,91
2022-09-15T12:22:20.934Z,94
2022-09-15T12:23:27.217Z,96
2022-09-15T12:24:33.492Z,95.5
2022-09-15T12:25:39.834Z,96
2022-09-15T12:26:46.072Z,94
2022-09-15T12:27:52.371Z,96
2022-09-15T12:28:57.727Z,94
2022-09-15T12:30:03.844Z,94
2022-09-15T12:31:10.112Z,95.5
2022-09-15T12:32:16.361Z,97
2022-09-15T12:33:22.688Z,98
2022-09-15T12:34:28.964Z,98.5
2022-09-15T12:35:35.251Z,97
2022-09-15T12:36:40.511Z,98
2022-09-15T12:37:45.819Z,98.5
2022-09-15T12:38:52.075Z,99
2022-09-15T12:39:58.300Z,97.5
2022-09-15T12:41:04.643Z,97.5
2022-09-15T12:42:10.860Z,96
2022-09-15T12:43:17.127Z,95.5
2022-09-15T12:44:22.413Z,96
2022-09-15T12:45:27.714Z,95
2022-09-15T12:46:33.985Z,96
2022-09-15T12:47:40.253Z,97
2022-09-15T12:48:46.549Z,98
2022-09-15T12:49:52.799Z,99
2022-09-15T12:50:59.206Z,97
2022-09-15T12:52:05.371Z,97.5
2022-09-15T12:53:11.661Z,96.5
2022-09-15T12:54:17.983Z,97
2022-09-15T12:55:24.162Z,96
2022-09-15T12:56:29.567Z,97
2022-09-15T12:57:35.857Z,98
2022-09-15T12:58:41.993Z,96.5
2022-09-15T12:59:48.318Z,96
2022-09-15T13:00:54.539Z,97
2022-09-15T13:02:00.822Z,98
2022-09-15T13:03:07.148Z,98
2022-09-15T13:04:13.366Z,97
2022-09-15T13:05:19.631Z,98
2022-09-15T13:06:25.996Z,99
2022-09-15T13:07:31.251Z,99.5
2022-09-15T13:08:36.519Z,99
2022-09-15T13:09:41.792Z,97.5
2022-09-15T13:10:47.203Z,97
2022-09-15T13:11:53.394Z,98
2022-09-15T13:12:59.685Z,98
2022-09-15T13:14:05.917Z,97.5
2022-09-15T13:15:12.242Z,95.5
2022-09-15T13:16:18.462Z,97.5
2022-09-15T13:17:24.784Z,98.5
2022-09-15T13:18:30.980Z,97.5
2022-09-15T13:19:37.302Z,97.5
2022-09-15T13:20:43.629Z,97.5
2022-09-15T13:21:49.858Z,98.5
2022-09-15T13:22:56.131Z,99
2022-09-15T13:24:02.385Z,99.5
2022-09-15T13:25:07.628Z,99.5
2022-09-15T13:26:13.981Z,99.5
2022-09-15T13:27:20.167Z,99.5
2022-09-15T13:28:26.444Z,97.5
2022-09-15T13:29:32.715Z,98.5
2022-09-15T13:30:39.027Z,99
2022-09-15T13:31:45.260Z,98.5
2022-09-15T13:32:50.557Z,97.5
2022-09-15T13:33:55.847Z,98.5
2022-09-15T13:35:01.171Z,99
2022-09-15T13:36:06.447Z,99
2022-09-15T13:37:12.710Z,99.5
2022-09-15T13:38:18.981Z,99
2022-09-15T13:39:25.307Z,99.5
2022-09-15T13:40:31.552Z,99.5
2022-09-15T13:41:37.827Z,99.5
2022-09-15T13:42:44.224Z,99.5
2022-09-15T13:43:50.384Z,99.5
2022-09-15T13:44:56.637Z,98
2022-09-15T13:46:02.885Z,98.5
2022-09-15T13:47:09.184Z,98.5
2022-09-15T13:48:15.444Z,98.5
2022-09-15T13:49:21.757Z,99
2022-09-15T13:50:27.083Z,97.5
2022-09-15T13:51:33.287Z,98
2022-09-15T13:52:39.545Z,98.5
2022-09-15T13:53:45.839Z,98.5
2022-09-15T13:54:52.100Z,98.5
2022-09-15T13:55:58.452Z,97
2022-09-15T13:57:04.655Z,97.5
2022-09-15T13:58:09.926Z,98
2022-09-15T13:59:15.244Z,98.5
2022-09-15T14:00:20.511Z,99
2022-09-15T14:01:25.916Z,99
2022-09-15T14:02:32.065Z,99
2022-09-15T14:03:38.358Z,99.5
2022-09-15T14:04:44.637Z,98.5
2022-09-15T14:05:50.880Z,99
2022-09-15T14:06:57.222Z,98.5
2022-09-15T14:08:03.430Z,98.5
2022-09-15T14:09:09.704Z,96.5
2022-09-15T14:10:15.974Z,95.5
2022-09-15T14:11:22.241Z,97.5
2022-09-15T14:12:28.578Z,98
2022-09-15T14:13:34.792Z,96
2022-09-15T14:14:41.072Z,96.5
2022-09-15T14:15:46.347Z,97
2022-09-15T14:16:52.685Z,98
2022-09-15T14:17:58.946Z,98
2022-09-15T14:19:05.166Z,99
2022-09-15T14:20:11.475Z,97
2022-09-15T14:21:17.800Z,98
2022-09-15T14:22:24.008Z,98.5
2022-09-15T14:23:29.278Z,98.5
2022-09-15T14:24:34.593Z,98.5
2022-09-15T14:25:39.881Z,98
2022-09-15T14:26:45.151Z,98
2022-09-15T14:27:51.428Z,98
2022-09-15T14:28:57.813Z,98.5
2022-09-15T14:30:04.067Z,98
2022-09-15T14:31:10.243Z,98
2022-09-15T14:32:16.510Z,98
2022-09-15T14:33:22.779Z,98
2022-09-15T14:34:29.159Z,97.5
2022-09-15T14:35:35.326Z,97.5
2022-09-15T14:36:41.701Z,97
2022-09-15T14:37:48.003Z,96.5
2022-09-15T14:38:54.282Z,96.5
2022-09-15T14:40:00.543Z,96
2022-09-15T14:41:05.836Z,96.5
2022-09-15T14:42:12.080Z,97.5
2022-09-15T14:43:18.388Z,97.5
2022-09-15T14:44:24.581Z,97.5
2022-09-15T14:45:30.787Z,96
2022-09-15T14:46:37.184Z,97
2022-09-15T14:47:43.491Z,95.5
2022-09-15T14:48:48.760Z,96
2022-09-15T14:49:53.945Z,97.5
2022-09-15T14:51:00.301Z,97.5
2022-09-15T14:52:05.590Z,97.5
2022-09-15T14:53:10.901Z,97.5
2022-09-15T14:54:17.051Z,97.5
2022-09-15T14:55:23.471Z,97
2022-09-15T14:56:29.669Z,97
2022-09-15T14:57:36.042Z,97
2022-09-15T14:58:42.240Z,97
2022-09-15T14:59:48.517Z,95
2022-09-15T15:00:54.809Z,96
2022-09-15T15:02:01.026Z,96.5
2022-09-15T15:03:07.263Z,96.5
2022-09-15T15:04:13.534Z,96.5
2022-09-15T15:05:19.899Z,97
2022-09-15T15:06:26.080Z,96.5
2022-09-15T15:07:31.483Z,96
2022-09-15T15:08:37.747Z,96